createdAt,value
2023-01-15T00:00:05.960Z,1.20
2023-01-15T00:05:09.004Z,1.30
2023-01-15T00:10:12.240Z,1.60
2023-01-15T00:15:15.180Z,1.60
2023-01-15T00:20:18.159Z,1.60
2023-01-15T00:25:40.110Z,1.83
2023-01-15T00:30:43.411Z,1.33
2023-01-15T05:31:58.839Z,1.43
2023-01-15T05:37:01.984Z,1.67
2023-01-15T05:42:04.887Z,1.60
2023-01-15T05:47:07.886Z,1.40
2023-01-15T05:52:10.777Z,1.67
2023-01-15T05:57:13.811Z,1.70
2023-01-15T06:02:16.762Z,1.40
2023-01-15T06:07:19.752Z,1.37
2023-01-15T06:12:22.608Z,1.50
2023-01-15T06:17:25.438Z,1.77
2023-01-15T06:22:29.796Z,1.70
2023-01-15T06:27:32.701Z,1.57
2023-01-15T06:32:35.600Z,1.80
2023-01-15T06:37:38.400Z,1.40
2023-01-15T06:42:59.758Z,1.43
2023-01-15T06:48:02.609Z,1.87
2023-01-15T06:53:05.449Z,1.83
2023-01-15T06:58:08.278Z,1.40
2023-01-15T07:03:14.285Z,1.30
2023-01-15T07:08:17.137Z,1.77
2023-01-15T07:13:19.973Z,1.67
2023-01-15T07:18:22.812Z,1.83
2023-01-15T07:23:27.235Z,1.40
2023-01-15T07:28:30.919Z,2.20
2023-01-15T07:33:34.127Z,1.40
2023-01-15T07:38:37.026Z,1.93
2023-01-15T07:43:58.413Z,1.60
2023-01-15T07:49:19.980Z,1.70
2023-01-15T07:54:22.885Z,1.80
2023-01-15T07:59:25.824Z,2.03
2023-01-15T08:04:28.734Z,1.87
2023-01-15T08:09:31.583Z,1.63
2023-01-15T08:14:52.771Z,1.40
2023-01-15T08:19:55.837Z,1.80
2023-01-15T08:24:58.723Z,1.70
2023-01-15T08:30:01.517Z,2.13
2023-01-15T08:35:04.677Z,1.60
2023-01-15T08:40:08.140Z,1.80
2023-01-15T08:45:11.521Z,1.83
2023-01-15T08:50:14.405Z,2.07
2023-01-15T08:55:17.332Z,2.13
2023-01-15T09:00:21.749Z,1.20
2023-01-15T09:05:24.678Z,1.50
2023-01-15T09:10:27.487Z,1.67
2023-01-15T09:15:32.968Z,1.70
2023-01-15T09:20:35.797Z,1.50
2023-01-15T09:25:38.577Z,1.70
2023-01-15T09:30:41.416Z,2.07
2023-01-15T09:35:44.456Z,1.60
2023-01-15T09:40:58.263Z,2.07
2023-01-15T09:46:06.766Z,1.60
2023-01-15T09:51:22.608Z,1.60
2023-01-15T09:56:28.966Z,1.53
2023-01-15T10:01:33.171Z,1.90
2023-01-15T10:06:43.819Z,2.00
2023-01-15T10:12:22.520Z,1.73
2023-01-15T10:17:37.115Z,1.53
2023-01-15T10:23:18.859Z,1.80
2023-01-15T10:28:29.803Z,2.17
2023-01-15T10:34:00.695Z,1.40
2023-01-15T10:39:26.404Z,1.97
2023-01-15T10:44:59.659Z,2.07
2023-01-15T10:50:13.585Z,1.60
2023-01-15T10:55:51.052Z,1.30
2023-01-15T11:00:58.986Z,2.10
2023-01-15T11:06:01.934Z,3.00
2023-01-15T11:11:49.491Z,1.80
2023-01-15T11:17:07.583Z,1.77
2023-01-15T11:22:20.818Z,2.10
2023-01-15T11:27:30.137Z,1.90
2023-01-15T11:32:35.908Z,1.97
2023-01-15T11:37:38.820Z,1.70
2023-01-15T11:43:05.655Z,1.93
2023-01-15T11:48:34.058Z,2.17
2023-01-15T11:53:44.325Z,2.00
2023-01-15T11:58:53.391Z,2.20
2023-01-15T12:03:57.987Z,2.00
2023-01-15T12:09:21.622Z,3.13
2023-01-15T12:14:55.249Z,2.07
2023-01-15T12:20:22.875Z,1.60
2023-01-15T12:25:40.769Z,2.30
2023-01-15T12:31:17.137Z,1.70
2023-01-15T12:36:21.966Z,2.37
2023-01-15T12:41:53.996Z,2.53
2023-01-15T12:46:57.518Z,2.63
2023-01-15T12:52:16.281Z,2.00
2023-01-15T12:57:28.960Z,2.57
2023-01-15T13:02:41.243Z,2.43
2023-01-15T13:07:53.742Z,2.67
2023-01-15T13:13:15.396Z,1.70
2023-01-15T13:18:33.285Z,1.90
2023-01-15T13:23:38.873Z,2.20
2023-01-15T13:29:03.041Z,2.00
2023-01-15T13:34:23.969Z,2.47
2023-01-15T13:39:36.838Z,1.87
2023-01-15T13:44:49.714Z,1.70
2023-01-15T13:50:05.611Z,1.90
2023-01-15T13:55:33.422Z,2.20
2023-01-15T14:00:38.179Z,2.07
2023-01-15T14:05:41.021Z,2.40
2023-01-15T14:10:43.878Z,2.57
2023-01-15T14:16:23.314Z,2.10
2023-01-15T14:21:51.619Z,2.60
2023-01-15T14:27:08.929Z,2.87
2023-01-15T14:32:40.139Z,2.30
2023-01-15T14:37:49.361Z,2.77
2023-01-15T14:43:04.806Z,2.87
2023-01-15T14:48:19.933Z,1.60
2023-01-15T14:53:31.058Z,2.00
2023-01-15T14:58:46.167Z,2.33
2023-01-15T15:04:27.413Z,2.43
2023-01-15T15:09:57.841Z,2.30
2023-01-15T15:15:22.326Z,2.87
2023-01-15T15:20:37.595Z,2.67
2023-01-15T15:25:40.902Z,2.10
2023-01-15T15:30:46.411Z,2.73
2023-01-15T15:35:55.045Z,2.23
2023-01-15T15:41:00.859Z,3.33
2023-01-15T15:46:38.711Z,2.73
2023-01-15T15:51:52.160Z,3.00
2023-01-15T15:57:08.962Z,3.13
2023-01-15T16:02:23.404Z,3.57
2023-01-15T16:07:33.573Z,3.20
2023-01-15T16:12:53.301Z,2.87
2023-01-15T16:17:57.355Z,3.00
2023-01-15T16:23:04.241Z,2.70
2023-01-15T16:28:07.145Z,2.23
2023-01-15T16:33:18.941Z,2.60
2023-01-15T16:38:22.011Z,3.07
2023-01-15T16:43:26.419Z,5.57
2023-01-15T16:48:38.548Z,7.50
2023-01-15T16:53:41.823Z,5.90
2023-01-15T16:58:44.758Z,6.13
2023-01-15T17:03:47.645Z,5.73
2023-01-15T17:08:51.414Z,5.10
2023-01-15T17:14:21.676Z,3.30
2023-01-15T17:19:24.530Z,3.07
2023-01-15T17:24:27.394Z,3.20
2023-01-15T17:29:30.337Z,3.10
2023-01-15T17:34:33.563Z,2.90
2023-01-15T17:39:36.479Z,2.90
2023-01-15T17:44:39.355Z,2.80
2023-01-15T17:49:42.279Z,2.77
2023-01-15T17:55:03.808Z,2.50
2023-01-15T18:00:26.025Z,2.73
2023-01-15T18:05:32.944Z,2.40
2023-01-15T18:10:35.914Z,2.43
2023-01-15T18:15:38.936Z,2.50
2023-01-15T18:20:42.046Z,2.83
2023-01-15T18:25:48.146Z,2.33
2023-01-15T18:30:51.292Z,2.23
2023-01-15T18:36:11.897Z,2.60
2023-01-15T18:41:36.441Z,2.50
2023-01-15T18:46:46.010Z,2.47
2023-01-15T18:52:09.076Z,3.43
2023-01-15T18:57:12.455Z,2.60
2023-01-15T19:02:16.497Z,2.80
2023-01-15T19:07:19.725Z,2.50
2023-01-15T19:12:22.661Z,2.10
2023-01-15T19:17:44.815Z,2.03
2023-01-15T19:22:59.683Z,2.53
2023-01-15T19:28:02.944Z,2.60
2023-01-15T19:33:06.745Z,2.47
2023-01-15T19:38:11.859Z,2.10
2023-01-15T19:43:33.140Z,2.30
2023-01-15T19:48:54.532Z,2.60
2023-01-15T19:53:58.888Z,2.80
2023-01-15T19:59:01.684Z,2.30
2023-01-15T20:04:04.668Z,2.10
2023-01-15T20:09:08.667Z,2.43
2023-01-15T20:14:11.522Z,2.30
2023-01-15T20:19:14.500Z,2.10
2023-01-15T20:24:17.367Z,2.43
2023-01-15T20:29:20.394Z,2.23
2023-01-15T20:34:23.318Z,2.67
2023-01-15T20:39:26.121Z,2.23
2023-01-15T20:44:47.418Z,2.70
2023-01-15T20:49:51.030Z,3.17
2023-01-15T20:54:53.908Z,2.23
2023-01-15T20:59:57.623Z,2.73
2023-01-15T21:05:00.511Z,2.43
2023-01-15T21:10:04.461Z,2.77
2023-01-15T21:15:07.827Z,3.20
2023-01-15T21:20:12.976Z,3.27
2023-01-15T21:25:15.868Z,3.07
2023-01-15T21:30:20.821Z,3.73
2023-01-15T21:35:23.693Z,3.10
2023-01-15T21:40:26.531Z,3.97
2023-01-15T21:45:29.422Z,3.67
2023-01-15T21:50:32.284Z,5.13
2023-01-15T21:55:35.350Z,4.63
2023-01-15T22:00:38.531Z,4.50
2023-01-15T22:05:41.382Z,4.53
2023-01-15T22:10:44.294Z,4.33
2023-01-15T22:15:54.464Z,3.63
2023-01-15T22:21:05.383Z,3.93
2023-01-15T22:26:18.454Z,3.83
2023-01-15T22:31:21.316Z,3.60
2023-01-15T22:36:26.683Z,3.67
2023-01-15T22:41:48.137Z,3.87
2023-01-15T22:46:50.984Z,3.57
2023-01-15T22:51:53.868Z,3.67
2023-01-15T22:56:56.702Z,4.00
2023-01-15T23:01:59.801Z,2.87
2023-01-15T23:07:03.145Z,4.20
2023-01-15T23:12:06.105Z,3.27
2023-01-15T23:17:08.953Z,3.20
2023-01-15T23:22:12.118Z,3.47
2023-01-15T23:27:15.007Z,4.43
2023-01-15T23:32:17.879Z,4.23
2023-01-15T23:37:20.733Z,4.57
2023-01-15T23:42:44.720Z,4.20
2023-01-15T23:47:47.744Z,3.87
2023-01-15T23:52:50.572Z,3.93
2023-01-15T23:57:53.406Z,3.90
